Time;durP1;ratioP1;P1;durP2;ratioP2;P2;SDS_P1;SDS_P2;PMS_P1;PMS_P2;Temp;Humidity;BMP_temperature;BMP_pressure;BME280_temperature;BME280_humidity;BME280_pressure;Samples;Min_cycle;Max_cycle;Signal;HPM_P1;HPM_P2
2023/05/14 00:00:28;;;;;;;4.80;2.97;;;;;;;;;;5134764;27;20557;-53
2023/05/14 00:03:15;;;;;;;6.10;4.13;;;;;;;;;;5134431;27;20201;-51
2023/05/14 00:05:43;;;;;;;7.10;3.97;;;;;;;;;;5134224;27;20576;-50
2023/05/14 00:08:10;;;;;;;9.18;4.45;;;;;;;;;;5134729;28;20228;-50
2023/05/14 00:10:37;;;;;;;10.40;4.20;;;;;;;;;;5134205;28;20788;-51
2023/05/14 00:13:04;;;;;;;10.60;4.78;;;;;;;;;;5134490;28;20197;-51
2023/05/14 00:15:31;;;;;;;7.50;4.57;;;;;;;;;;5134637;28;20201;-50
2023/05/14 00:18:00;;;;;;;9.65;4.82;;;;;;;;;;5134246;28;20558;-53
2023/05/14 00:20:27;;;;;;;7.45;4.30;;;;;;;;;;5134538;28;20205;-51
2023/05/14 00:22:55;;;;;;;8.45;4.60;;;;;;;;;;5134771;28;20208;-50
2023/05/14 00:25:22;;;;;;;6.35;4.45;;;;;;;;;;5134560;28;20563;-50
2023/05/14 00:27:49;;;;;;;10.70;4.18;;;;;;;;;;5134285;28;20212;-50
2023/05/14 00:30:17;;;;;;;6.63;4.43;;;;;;;;;;5116115;28;20304;-55
2023/05/14 00:32:44;;;;;;;6.07;4.28;;;;;;;;;;5134102;28;20284;-50
2023/05/14 00:35:11;;;;;;;12.70;4.78;;;;;;;;;;5134359;28;20204;-50
2023/05/14 00:37:38;;;;;;;8.25;4.35;;;;;;;;;;5134339;28;20739;-51
2023/05/14 00:40:07;;;;;;;10.77;4.63;;;;;;;;;;5116079;28;20205;-51
2023/05/14 00:42:34;;;;;;;6.85;4.30;;;;;;;;;;5134236;28;20205;-51
2023/05/14 00:45:01;;;;;;;7.97;4.13;;;;;;;;;;5115628;28;20194;-50
2023/05/14 00:47:28;;;;;;;8.52;4.05;;;;;;;;;;5133072;28;20229;-51
2023/05/14 00:49:56;;;;;;;5.78;3.60;;;;;;;;;;5114471;28;20236;-49
2023/05/14 00:52:23;;;;;;;4.65;3.20;;;;;;;;;;5132592;28;20193;-50
2023/05/14 00:54:50;;;;;;;3.80;3.10;;;;;;;;;;5133158;28;20198;-49
2023/05/14 00:57:18;;;;;;;10.45;2.70;;;;;;;;;;5114941;28;20548;-50
2023/05/14 00:59:45;;;;;;;3.58;2.63;;;;;;;;;;5134373;28;20201;-51
2023/05/14 01:02:12;;;;;;;3.42;2.30;;;;;;;;;;5133868;28;20755;-51
2023/05/14 01:04:40;;;;;;;3.08;2.00;;;;;;;;;;5133828;28;20204;-51
2023/05/14 01:07:32;;;;;;;4.82;2.50;;;;;;;;;;5115697;28;20695;-51
2023/05/14 01:10:07;;;;;;;2.78;2.20;;;;;;;;;;5099470;28;20237;-50
2023/05/14 01:12:41;;;;;;;4.95;2.40;;;;;;;;;;5116010;27;20201;-51
2023/05/14 01:15:14;;;;;;;3.90;2.45;;;;;;;;;;5137643;27;20208;-50
2023/05/14 01:17:49;;;;;;;3.45;2.38;;;;;;;;;;5137177;27;20254;-50
2023/05/14 01:20:17;;;;;;;4.55;2.50;;;;;;;;;;5102715;27;20211;-52
2023/05/14 01:22:44;;;;;;;3.03;1.98;;;;;;;;;;5137721;27;20574;-54
2023/05/14 01:25:11;;;;;;;3.85;2.30;;;;;;;;;;5119374;27;20224;-51
2023/05/14 01:27:56;;;;;;;3.25;2.38;;;;;;;;;;5137394;27;20539;-54
2023/05/14 01:30:23;;;;;;;5.00;2.08;;;;;;;;;;5137329;27;20233;-50
2023/05/14 01:32:53;;;;;;;2.60;1.90;;;;;;;;;;5119256;27;20213;-50
2023/05/14 01:35:26;;;;;;;2.63;1.98;;;;;;;;;;5119327;27;20209;-50
2023/05/14 01:37:56;;;;;;;4.63;2.08;;;;;;;;;;5118852;27;20229;-50
2023/05/14 01:40:23;;;;;;;3.17;2.30;;;;;;;;;;5102114;27;20589;-52
2023/05/14 01:42:52;;;;;;;2.45;1.85;;;;;;;;;;5102039;27;20205;-50
2023/05/14 01:45:20;;;;;;;3.67;2.15;;;;;;;;;;5136956;27;20668;-51
2023/05/14 01:47:47;;;;;;;2.83;2.40;;;;;;;;;;5118838;27;20203;-56
2023/05/14 01:50:15;;;;;;;4.03;2.80;;;;;;;;;;5118853;27;20286;-50
2023/05/14 01:52:42;;;;;;;4.50;3.10;;;;;;;;;;5136869;27;20201;-52
2023/05/14 01:55:09;;;;;;;4.80;2.95;;;;;;;;;;5136765;27;20194;-51
2023/05/14 01:57:36;;;;;;;5.22;3.25;;;;;;;;;;5137059;27;20205;-51
2023/05/14 02:00:04;;;;;;;7.47;3.35;;;;;;;;;;5118297;27;20201;-50
2023/05/14 02:02:39;;;;;;;4.32;2.60;;;;;;;;;;5136589;27;20200;-50
2023/05/14 02:05:10;;;;;;;4.32;2.30;;;;;;;;;;5117757;27;20660;-50
2023/05/14 02:07:37;;;;;;;4.30;2.78;;;;;;;;;;5136615;27;20284;-50
2023/05/14 02:10:05;;;;;;;4.28;2.40;;;;;;;;;;5118046;27;20233;-50
2023/05/14 02:12:32;;;;;;;4.65;3.05;;;;;;;;;;5136319;27;20604;-55
2023/05/14 02:15:00;;;;;;;4.95;2.90;;;;;;;;;;5136114;27;20683;-53
2023/05/14 02:17:27;;;;;;;3.45;2.72;;;;;;;;;;5136353;27;20197;-51
2023/05/14 02:19:54;;;;;;;5.35;3.38;;;;;;;;;;5136067;27;20253;-51
2023/05/14 02:22:21;;;;;;;4.82;3.15;;;;;;;;;;5135999;27;20206;-56
2023/05/14 02:24:50;;;;;;;3.25;2.70;;;;;;;;;;5136058;27;20201;-51
2023/05/14 02:27:17;;;;;;;5.03;2.63;;;;;;;;;;5136174;27;20280;-52
2023/05/14 02:29:45;;;;;;;3.83;2.42;;;;;;;;;;5135734;27;20714;-50
2023/05/14 02:32:12;;;;;;;3.38;2.38;;;;;;;;;;5136006;27;20202;-50
2023/05/14 02:34:40;;;;;;;3.58;2.95;;;;;;;;;;5117575;27;20208;-50
2023/05/14 02:37:07;;;;;;;3.03;2.38;;;;;;;;;;5135704;27;20236;-55
2023/05/14 02:39:34;;;;;;;3.22;2.30;;;;;;;;;;5135782;27;20213;-50
2023/05/14 02:42:01;;;;;;;3.17;2.30;;;;;;;;;;5135688;27;20710;-54
2023/05/14 02:44:30;;;;;;;4.10;2.38;;;;;;;;;;5117329;27;20205;-50
2023/05/14 02:46:57;;;;;;;2.63;2.13;;;;;;;;;;5117209;27;20212;-51
2023/05/14 02:49:25;;;;;;;4.20;2.63;;;;;;;;;;5135500;27;20236;-51
2023/05/14 02:51:53;;;;;;;3.47;2.58;;;;;;;;;;5135815;27;20216;-51
2023/05/14 02:54:20;;;;;;;3.33;2.50;;;;;;;;;;5117021;27;20231;-52
2023/05/14 02:56:47;;;;;;;2.95;2.25;;;;;;;;;;5135627;27;20278;-51
2023/05/14 02:59:14;;;;;;;5.60;2.60;;;;;;;;;;5117320;27;20208;-53
2023/05/14 03:01:42;;;;;;;6.55;2.47;;;;;;;;;;5116857;27;20202;-51
2023/05/14 03:04:09;;;;;;;3.50;2.42;;;;;;;;;;5117159;27;20220;-50
2023/05/14 03:06:36;;;;;;;2.30;1.92;;;;;;;;;;5114748;27;21475;-53
2023/05/14 03:09:04;;;;;;;4.13;2.28;;;;;;;;;;5128104;27;20228;-49
2023/05/14 03:11:31;;;;;;;3.13;2.38;;;;;;;;;;5134214;27;20364;-55
2023/05/14 03:13:59;;;;;;;4.47;2.25;;;;;;;;;;5099063;27;20546;-54
2023/05/14 03:16:26;;;;;;;4.90;2.53;;;;;;;;;;5134029;27;20202;-51
2023/05/14 03:18:53;;;;;;;3.88;2.53;;;;;;;;;;5133752;27;20194;-54
2023/05/14 03:21:20;;;;;;;4.47;3.08;;;;;;;;;;5133966;27;20236;-49
2023/05/14 03:23:48;;;;;;;3.78;2.50;;;;;;;;;;5133647;27;20210;-50
2023/05/14 03:26:17;;;;;;;4.55;2.88;;;;;;;;;;5113703;27;20197;-50
2023/05/14 03:28:45;;;;;;;4.93;3.17;;;;;;;;;;5133918;27;20200;-51
2023/05/14 03:31:11;;;;;;;3.63;2.40;;;;;;;;;;5115673;27;20274;-51
2023/05/14 03:33:39;;;;;;;4.20;2.75;;;;;;;;;;5133220;27;20341;-56
2023/05/14 03:36:06;;;;;;;4.57;3.05;;;;;;;;;;5131020;27;20194;-51
2023/05/14 03:38:33;;;;;;;4.60;2.88;;;;;;;;;;5109170;27;20197;-54
2023/05/14 03:41:00;;;;;;;4.88;3.20;;;;;;;;;;5114541;28;20205;-54
2023/05/14 03:43:28;;;;;;;6.40;2.63;;;;;;;;;;5125490;27;20235;-56
2023/05/14 03:45:55;;;;;;;5.10;3.60;;;;;;;;;;5096058;28;20228;-54
2023/05/14 03:48:22;;;;;;;3.80;2.58;;;;;;;;;;5129982;27;20213;-50
2023/05/14 03:50:50;;;;;;;4.20;2.95;;;;;;;;;;5095959;28;20300;-51
2023/05/14 03:53:17;;;;;;;4.43;3.30;;;;;;;;;;5114069;28;20209;-50
2023/05/14 03:55:45;;;;;;;3.78;2.92;;;;;;;;;;5095920;28;20198;-50
2023/05/14 03:58:13;;;;;;;4.93;3.28;;;;;;;;;;5096016;28;20210;-51
2023/05/14 04:00:41;;;;;;;6.72;3.35;;;;;;;;;;5114087;28;20233;-52
2023/05/14 04:03:10;;;;;;;5.35;3.13;;;;;;;;;;5095773;28;20205;-56
2023/05/14 04:05:37;;;;;;;4.43;3.35;;;;;;;;;;5129943;27;20241;-50
2023/05/14 04:08:05;;;;;;;6.25;3.88;;;;;;;;;;5095613;28;20194;-50
2023/05/14 04:10:32;;;;;;;4.55;3.53;;;;;;;;;;5114060;28;20247;-50
2023/05/14 04:12:59;;;;;;;3.75;3.08;;;;;;;;;;5114226;28;20205;-51
2023/05/14 04:15:31;;;;;;;5.07;3.25;;;;;;;;;;5096006;28;20182;-51
2023/05/14 04:17:58;;;;;;;3.75;3.00;;;;;;;;;;5095885;28;20223;-51
2023/05/14 04:20:26;;;;;;;5.15;3.28;;;;;;;;;;5095890;28;20201;-50
2023/05/14 04:22:54;;;;;;;4.25;3.28;;;;;;;;;;5079047;28;20656;-51
2023/05/14 04:25:20;;;;;;;5.50;3.10;;;;;;;;;;5113612;28;20206;-51
2023/05/14 04:27:48;;;;;;;4.57;3.20;;;;;;;;;;5113924;28;20259;-50
2023/05/14 04:30:15;;;;;;;4.38;3.20;;;;;;;;;;5113441;28;20740;-50
2023/05/14 04:32:43;;;;;;;6.22;3.20;;;;;;;;;;5113899;28;20205;-51
2023/05/14 04:35:11;;;;;;;3.90;2.58;;;;;;;;;;5113630;28;20206;-50
2023/05/14 04:37:39;;;;;;;4.10;3.15;;;;;;;;;;5114160;28;20202;-50
2023/05/14 04:40:11;;;;;;;4.13;2.80;;;;;;;;;;5113766;28;20280;-50
2023/05/14 04:42:39;;;;;;;3.45;2.70;;;;;;;;;;5113914;28;20201;-51
2023/05/14 04:45:06;;;;;;;3.65;2.80;;;;;;;;;;5119030;28;20246;-55
2023/05/14 04:47:33;;;;;;;3.03;2.67;;;;;;;;;;5114841;28;20204;-49
2023/05/14 04:50:01;;;;;;;4.25;2.78;;;;;;;;;;5136506;27;20224;-57
2023/05/14 04:52:28;;;;;;;3.78;2.72;;;;;;;;;;5136936;27;20208;-53
2023/05/14 04:54:55;;;;;;;3.45;2.63;;;;;;;;;;5136528;27;20212;-50
2023/05/14 04:57:23;;;;;;;3.97;2.70;;;;;;;;;;5136511;27;20205;-57
2023/05/14 04:59:50;;;;;;;4.10;2.72;;;;;;;;;;5134144;27;20254;-51
2023/05/14 05:02:17;;;;;;;3.85;2.88;;;;;;;;;;5136664;27;20201;-54
2023/05/14 05:04:45;;;;;;;3.25;2.72;;;;;;;;;;5136469;27;20190;-52
2023/05/14 05:07:13;;;;;;;3.67;2.80;;;;;;;;;;5136142;27;20232;-52
2023/05/14 05:09:41;;;;;;;4.15;2.55;;;;;;;;;;5136327;27;20200;-54
2023/05/14 05:12:09;;;;;;;3.67;2.70;;;;;;;;;;5133375;27;20198;-55
2023/05/14 05:14:36;;;;;;;3.35;2.55;;;;;;;;;;5136730;27;20276;-50
2023/05/14 05:17:03;;;;;;;5.43;2.85;;;;;;;;;;5136498;27;20253;-49
2023/05/14 05:19:30;;;;;;;4.30;2.53;;;;;;;;;;5136089;27;20719;-52
2023/05/14 05:22:09;;;;;;;3.58;2.53;;;;;;;;;;5134746;27;20544;-50
2023/05/14 05:24:36;;;;;;;3.17;2.25;;;;;;;;;;5136212;27;20276;-50
2023/05/14 05:27:04;;;;;;;6.50;2.85;;;;;;;;;;5136051;27;20208;-50
2023/05/14 05:29:31;;;;;;;3.55;2.90;;;;;;;;;;5136122;27;20201;-52
2023/05/14 05:31:58;;;;;;;4.40;2.72;;;;;;;;;;5135899;27;20224;-57
2023/05/14 05:34:25;;;;;;;4.35;2.60;;;;;;;;;;5135815;27;20565;-52
2023/05/14 05:36:53;;;;;;;4.85;2.75;;;;;;;;;;5135869;27;20204;-52
2023/05/14 05:39:20;;;;;;;4.40;2.60;;;;;;;;;;5135960;27;20201;-51
2023/05/14 05:41:47;;;;;;;3.05;2.38;;;;;;;;;;5135555;27;20193;-55
2023/05/14 05:44:14;;;;;;;2.90;2.40;;;;;;;;;;5135500;27;20198;-56
2023/05/14 05:46:41;;;;;;;4.55;2.80;;;;;;;;;;5135715;27;20204;-50
2023/05/14 05:49:08;;;;;;;3.78;2.50;;;;;;;;;;5135516;27;20189;-50
2023/05/14 05:51:35;;;;;;;2.63;2.30;;;;;;;;;;5135288;27;20228;-52
2023/05/14 05:54:02;;;;;;;3.15;2.30;;;;;;;;;;5135523;27;20316;-49
2023/05/14 05:56:30;;;;;;;3.08;2.40;;;;;;;;;;5132735;27;20185;-55
2023/05/14 05:58:57;;;;;;;4.20;2.50;;;;;;;;;;5135906;27;20281;-48
2023/05/14 06:01:25;;;;;;;5.28;2.50;;;;;;;;;;5136840;27;20206;-48
2023/05/14 06:03:52;;;;;;;3.40;2.30;;;;;;;;;;5136631;27;20225;-48
2023/05/14 06:06:20;;;;;;;4.90;2.25;;;;;;;;;;5136565;27;20692;-48
2023/05/14 06:08:47;;;;;;;3.22;2.00;;;;;;;;;;5136752;27;20197;-48
2023/05/14 06:11:15;;;;;;;3.00;2.10;;;;;;;;;;5136214;27;20225;-48
2023/05/14 06:13:42;;;;;;;4.05;2.63;;;;;;;;;;5136183;27;20206;-51
2023/05/14 06:16:10;;;;;;;2.70;2.22;;;;;;;;;;5130244;27;20209;-48
2023/05/14 06:18:37;;;;;;;3.65;2.15;;;;;;;;;;5128931;27;20247;-48
2023/05/14 06:21:04;;;;;;;3.22;2.13;;;;;;;;;;5125682;27;20302;-49
2023/05/14 06:23:32;;;;;;;3.70;2.20;;;;;;;;;;5118407;27;20301;-47
2023/05/14 06:25:59;;;;;;;5.60;2.47;;;;;;;;;;5125424;27;20233;-49
2023/05/14 06:28:26;;;;;;;3.55;2.30;;;;;;;;;;5130496;27;20229;-49
2023/05/14 06:30:53;;;;;;;3.40;2.40;;;;;;;;;;5134791;27;20232;-49
2023/05/14 06:33:28;;;;;;;3.75;2.30;;;;;;;;;;5134610;27;20217;-50
2023/05/14 06:35:57;;;;;;;3.10;2.30;;;;;;;;;;5135724;27;20217;-51
2023/05/14 06:38:24;;;;;;;3.83;2.30;;;;;;;;;;5128371;27;20225;-54
2023/05/14 06:40:52;;;;;;;3.28;2.03;;;;;;;;;;5125961;27;20680;-49
2023/05/14 06:43:19;;;;;;;3.78;2.25;;;;;;;;;;5135102;27;20217;-46
2023/05/14 06:45:50;;;;;;;2.72;2.25;;;;;;;;;;5134952;27;20216;-54
2023/05/14 06:48:17;;;;;;;5.03;2.47;;;;;;;;;;5134936;27;20691;-45
2023/05/14 06:50:46;;;;;;;3.63;2.47;;;;;;;;;;5134381;27;20220;-59
2023/05/14 06:53:14;;;;;;;4.43;2.65;;;;;;;;;;5134266;27;20210;-45
2023/05/14 06:55:41;;;;;;;3.63;2.00;;;;;;;;;;5128482;27;20222;-49
2023/05/14 06:58:08;;;;;;;3.83;2.58;;;;;;;;;;5128833;27;20217;-50
2023/05/14 07:00:35;;;;;;;4.40;2.40;;;;;;;;;;5134571;27;20224;-55
2023/05/14 07:03:02;;;;;;;3.00;2.10;;;;;;;;;;5132191;27;20273;-55
2023/05/14 07:05:30;;;;;;;3.20;2.13;;;;;;;;;;5134523;27;20950;-55
2023/05/14 07:07:57;;;;;;;2.15;1.77;;;;;;;;;;5134633;27;20270;-54
2023/05/14 07:10:25;;;;;;;2.63;1.77;;;;;;;;;;5133732;27;20678;-55
2023/05/14 07:12:52;;;;;;;2.08;1.70;;;;;;;;;;5133969;27;20274;-54
2023/05/14 07:15:20;;;;;;;2.03;1.52;;;;;;;;;;5136011;27;20718;-54
2023/05/14 07:17:47;;;;;;;2.90;1.92;;;;;;;;;;5132973;27;20224;-56
2023/05/14 07:20:14;;;;;;;3.72;1.88;;;;;;;;;;5130029;27;20787;-54
2023/05/14 07:22:41;;;;;;;2.70;1.63;;;;;;;;;;5132531;27;20272;-53
2023/05/14 07:25:08;;;;;;;1.60;1.27;;;;;;;;;;5132713;27;20298;-55
2023/05/14 07:27:35;;;;;;;2.88;1.48;;;;;;;;;;5133751;27;20229;-51
2023/05/14 07:30:03;;;;;;;2.38;1.33;;;;;;;;;;5132694;27;20209;-54
2023/05/14 07:32:30;;;;;;;2.60;1.58;;;;;;;;;;5132522;27;20671;-54
2023/05/14 07:34:57;;;;;;;2.92;1.52;;;;;;;;;;5133648;27;20212;-47
2023/05/14 07:37:24;;;;;;;1.52;1.40;;;;;;;;;;5134803;27;20706;-47
2023/05/14 07:39:52;;;;;;;2.30;1.30;;;;;;;;;;5134934;27;20201;-49
2023/05/14 07:42:19;;;;;;;2.75;1.30;;;;;;;;;;5134738;27;20207;-47
2023/05/14 07:45:02;;;;;;;4.13;1.48;;;;;;;;;;5134593;27;20201;-46
2023/05/14 07:47:30;;;;;;;2.00;1.42;;;;;;;;;;5134683;27;20261;-49
2023/05/14 07:49:57;;;;;;;3.70;1.60;;;;;;;;;;5134316;27;20542;-51
2023/05/14 07:52:24;;;;;;;2.35;1.50;;;;;;;;;;5134398;27;20703;-52
2023/05/14 07:54:52;;;;;;;2.50;1.40;;;;;;;;;;5134696;27;20213;-48
2023/05/14 07:57:19;;;;;;;2.20;1.20;;;;;;;;;;5134686;27;20206;-48
2023/05/14 07:59:47;;;;;;;2.03;1.27;;;;;;;;;;5134656;27;20209;-48
2023/05/14 08:02:17;;;;;;;1.90;1.33;;;;;;;;;;5134550;27;20213;-47
2023/05/14 08:04:44;;;;;;;2.60;1.70;;;;;;;;;;5134431;27;20249;-49
2023/05/14 08:07:11;;;;;;;3.38;1.30;;;;;;;;;;5134861;27;20237;-48
2023/05/14 08:09:38;;;;;;;1.50;1.20;;;;;;;;;;5134330;27;20198;-47
2023/05/14 08:12:06;;;;;;;2.65;1.48;;;;;;;;;;5134899;28;20221;-48
2023/05/14 08:14:34;;;;;;;2.35;1.38;;;;;;;;;;5134631;28;20204;-48
2023/05/14 08:17:00;;;;;;;2.38;1.50;;;;;;;;;;5135158;28;20201;-48
2023/05/14 08:19:28;;;;;;;1.85;1.30;;;;;;;;;;5134347;28;20212;-47
2023/05/14 08:21:55;;;;;;;1.27;1.00;;;;;;;;;;5134416;27;20708;-47
2023/05/14 08:24:22;;;;;;;1.73;1.10;;;;;;;;;;5138848;27;20204;-47
2023/05/14 08:26:49;;;;;;;1.67;1.30;;;;;;;;;;5130974;27;20650;-46
2023/05/14 08:29:16;;;;;;;1.48;1.05;;;;;;;;;;5117861;28;20668;-47
2023/05/14 08:31:43;;;;;;;3.60;1.42;;;;;;;;;;5118154;28;20221;-47
2023/05/14 08:34:11;;;;;;;2.83;1.27;;;;;;;;;;5117826;28;20213;-47
2023/05/14 08:36:38;;;;;;;1.65;1.13;;;;;;;;;;5118082;28;20202;-46
2023/05/14 08:39:08;;;;;;;1.60;1.15;;;;;;;;;;5117650;28;20617;-47
2023/05/14 08:41:36;;;;;;;1.27;0.90;;;;;;;;;;5117851;28;20266;-48
2023/05/14 08:44:10;;;;;;;1.45;1.30;;;;;;;;;;5118017;28;20202;-47
2023/05/14 08:46:38;;;;;;;2.00;1.30;;;;;;;;;;5117691;28;20251;-47
2023/05/14 08:49:20;;;;;;;1.40;1.00;;;;;;;;;;5117963;28;20228;-47
2023/05/14 08:51:47;;;;;;;1.58;1.00;;;;;;;;;;5117629;28;20707;-48
2023/05/14 08:54:16;;;;;;;1.40;1.20;;;;;;;;;;5117461;28;20223;-47
2023/05/14 08:56:47;;;;;;;1.23;1.00;;;;;;;;;;5117735;28;20230;-47
2023/05/14 08:59:18;;;;;;;2.00;1.10;;;;;;;;;;5117408;28;20322;-46
2023/05/14 09:01:47;;;;;;;1.10;1.00;;;;;;;;;;5117345;28;20210;-48
2023/05/14 09:04:15;;;;;;;1.35;1.10;;;;;;;;;;5117567;28;20214;-47
2023/05/14 09:06:42;;;;;;;1.33;0.85;;;;;;;;;;5099168;28;20233;-48
2023/05/14 09:09:10;;;;;;;1.45;1.00;;;;;;;;;;5117238;28;20548;-47
2023/05/14 09:11:41;;;;;;;2.03;1.00;;;;;;;;;;5099208;28;20253;-47
2023/05/14 09:14:09;;;;;;;2.72;1.33;;;;;;;;;;5125889;27;20194;-50
2023/05/14 09:16:37;;;;;;;1.70;1.17;;;;;;;;;;5128319;27;20223;-48
2023/05/14 09:19:05;;;;;;;0.82;0.80;;;;;;;;;;5118123;27;20201;-49
2023/05/14 09:21:33;;;;;;;1.83;1.08;;;;;;;;;;5136307;27;20230;-49
2023/05/14 09:24:00;;;;;;;3.08;0.90;;;;;;;;;;5129725;27;20218;-49
2023/05/14 09:26:30;;;;;;;1.63;1.23;;;;;;;;;;5135029;27;20670;-50
2023/05/14 09:29:02;;;;;;;0.82;0.80;;;;;;;;;;5135072;27;20225;-50
2023/05/14 09:31:31;;;;;;;1.45;1.00;;;;;;;;;;5134863;27;20220;-49
2023/05/14 09:33:59;;;;;;;0.73;0.70;;;;;;;;;;5130155;27;20213;-50
2023/05/14 09:36:26;;;;;;;1.20;1.10;;;;;;;;;;5135448;27;20772;-49
2023/05/14 09:38:56;;;;;;;1.20;1.10;;;;;;;;;;5135718;27;20248;-48
2023/05/14 09:41:23;;;;;;;1.10;0.93;;;;;;;;;;5135866;27;20266;-51
2023/05/14 09:43:51;;;;;;;1.25;1.00;;;;;;;;;;5131857;27;20224;-48
2023/05/14 09:46:18;;;;;;;4.85;1.10;;;;;;;;;;5134564;27;20260;-49
2023/05/14 09:48:45;;;;;;;1.50;0.77;;;;;;;;;;5134900;27;20209;-47
2023/05/14 09:51:12;;;;;;;1.33;0.90;;;;;;;;;;5132588;27;20560;-47
2023/05/14 09:53:40;;;;;;;1.40;1.20;;;;;;;;;;5135502;27;20341;-47
2023/05/14 09:56:07;;;;;;;1.25;0.90;;;;;;;;;;5117650;27;20221;-47
2023/05/14 09:58:34;;;;;;;1.10;0.80;;;;;;;;;;5136294;27;20231;-47
2023/05/14 10:01:01;;;;;;;0.90;0.70;;;;;;;;;;5118021;27;20576;-47
2023/05/14 10:03:29;;;;;;;1.10;0.70;;;;;;;;;;5135896;27;20229;-50
2023/05/14 10:06:03;;;;;;;1.75;0.80;;;;;;;;;;5135754;27;20236;-47
2023/05/14 10:08:34;;;;;;;0.80;0.70;;;;;;;;;;5135068;27;20221;-50
2023/05/14 10:11:06;;;;;;;0.63;0.63;;;;;;;;;;5117940;27;20218;-43
2023/05/14 10:13:39;;;;;;;1.13;0.75;;;;;;;;;;5117548;27;20621;-44
2023/05/14 10:16:19;;;;;;;1.00;0.80;;;;;;;;;;5116969;27;20300;-44
2023/05/14 10:18:50;;;;;;;1.10;0.88;;;;;;;;;;5114258;27;20236;-46
2023/05/14 10:21:20;;;;;;;1.17;0.70;;;;;;;;;;5118121;27;20300;-44
2023/05/14 10:23:48;;;;;;;0.80;0.70;;;;;;;;;;5135464;27;20222;-44
2023/05/14 10:26:15;;;;;;;1.08;0.88;;;;;;;;;;5115705;27;20716;-45
2023/05/14 10:28:43;;;;;;;1.55;0.95;;;;;;;;;;5115681;27;20213;-44
2023/05/14 10:31:11;;;;;;;1.00;0.60;;;;;;;;;;5113349;27;20216;-44
2023/05/14 10:33:46;;;;;;;1.30;1.00;;;;;;;;;;5133830;27;20733;-43
2023/05/14 10:36:14;;;;;;;2.15;0.80;;;;;;;;;;5132060;27;20213;-44
2023/05/14 10:38:41;;;;;;;2.22;0.85;;;;;;;;;;5133775;27;20221;-44
2023/05/14 10:41:16;;;;;;;1.60;1.00;;;;;;;;;;5133582;27;20225;-43
2023/05/14 10:43:44;;;;;;;1.20;1.00;;;;;;;;;;5133546;27;20221;-46
2023/05/14 10:46:12;;;;;;;0.80;0.65;;;;;;;;;;5132379;27;20634;-44
2023/05/14 10:48:41;;;;;;;1.45;0.90;;;;;;;;;;5133931;27;20217;-43
2023/05/14 10:51:09;;;;;;;1.40;0.90;;;;;;;;;;5115720;27;20235;-42
2023/05/14 10:53:41;;;;;;;1.55;0.90;;;;;;;;;;5133020;27;20687;-43
2023/05/14 10:56:10;;;;;;;1.40;0.80;;;;;;;;;;5134322;27;20656;-42
2023/05/14 10:58:42;;;;;;;2.53;1.00;;;;;;;;;;5113841;27;20210;-42
2023/05/14 11:01:11;;;;;;;1.15;0.77;;;;;;;;;;5133888;27;20602;-42
2023/05/14 11:03:40;;;;;;;0.95;0.80;;;;;;;;;;5131290;27;20219;-45
2023/05/14 11:06:09;;;;;;;1.25;0.68;;;;;;;;;;5128658;27;20244;-43
2023/05/14 11:08:37;;;;;;;0.82;0.70;;;;;;;;;;5134269;27;20229;-43
2023/05/14 11:11:05;;;;;;;1.00;0.80;;;;;;;;;;5133693;27;20241;-41
2023/05/14 11:13:33;;;;;;;2.17;1.20;;;;;;;;;;5134726;27;20233;-41
2023/05/14 11:16:01;;;;;;;1.77;0.90;;;;;;;;;;5115799;27;20221;-42
2023/05/14 11:18:52;;;;;;;0.80;0.70;;;;;;;;;;5133538;27;20232;-43
2023/05/14 11:21:19;;;;;;;1.60;0.68;;;;;;;;;;5132340;27;20278;-42
2023/05/14 11:23:47;;;;;;;1.13;0.93;;;;;;;;;;5133313;27;20229;-42
2023/05/14 11:26:14;;;;;;;0.70;0.60;;;;;;;;;;5133030;27;20763;-42
2023/05/14 11:28:41;;;;;;;0.50;0.50;;;;;;;;;;5115663;27;20225;-43
2023/05/14 11:31:08;;;;;;;0.70;0.70;;;;;;;;;;5134076;27;20309;-42
2023/05/14 11:33:35;;;;;;;0.90;0.70;;;;;;;;;;5115996;27;20240;-41
2023/05/14 11:36:03;;;;;;;1.17;0.80;;;;;;;;;;5134028;27;20266;-40
2023/05/14 11:38:30;;;;;;;1.52;0.98;;;;;;;;;;5134155;27;20229;-42
2023/05/14 11:40:58;;;;;;;1.20;0.77;;;;;;;;;;5124893;27;20573;-41
2023/05/14 11:43:29;;;;;;;0.90;0.75;;;;;;;;;;5114988;27;20289;-41
2023/05/14 11:45:56;;;;;;;0.70;0.70;;;;;;;;;;5113575;28;20217;-39
2023/05/14 11:48:24;;;;;;;1.40;0.80;;;;;;;;;;5113859;28;20225;-41
2023/05/14 11:50:51;;;;;;;1.42;0.88;;;;;;;;;;5113279;28;20295;-41
2023/05/14 11:53:29;;;;;;;1.05;0.77;;;;;;;;;;5073013;27;20727;-39
2023/05/14 11:55:58;;;;;;;1.70;0.85;;;;;;;;;;5134305;27;20225;-39
2023/05/14 11:58:25;;;;;;;1.60;1.00;;;;;;;;;;5133745;27;20229;-40
2023/05/14 12:00:54;;;;;;;1.02;0.77;;;;;;;;;;5134802;27;20224;-40
2023/05/14 12:03:24;;;;;;;0.60;0.60;;;;;;;;;;5116870;27;20209;-40
2023/05/14 12:05:56;;;;;;;1.45;0.90;;;;;;;;;;5134438;27;20235;-39
2023/05/14 12:08:29;;;;;;;2.90;0.90;;;;;;;;;;5134693;27;20310;-40
2023/05/14 12:10:59;;;;;;;1.70;0.90;;;;;;;;;;5134646;27;20212;-40
2023/05/14 12:13:28;;;;;;;1.73;0.95;;;;;;;;;;5134407;28;20706;-40
2023/05/14 12:15:57;;;;;;;0.77;0.70;;;;;;;;;;5134653;28;20236;-39
2023/05/14 12:18:25;;;;;;;0.60;0.60;;;;;;;;;;5134338;28;20201;-42
2023/05/14 12:20:52;;;;;;;1.25;0.98;;;;;;;;;;5134256;28;20201;-41
2023/05/14 12:23:29;;;;;;;1.40;0.95;;;;;;;;;;5134205;28;20564;-40
2023/05/14 12:26:05;;;;;;;1.15;0.70;;;;;;;;;;5134457;28;20211;-40
2023/05/14 12:28:33;;;;;;;1.02;0.60;;;;;;;;;;5134547;28;20197;-41
2023/05/14 12:31:03;;;;;;;1.85;1.02;;;;;;;;;;5134185;28;20656;-40
2023/05/14 12:33:31;;;;;;;1.02;0.90;;;;;;;;;;5134804;27;20262;-41
2023/05/14 12:36:01;;;;;;;0.93;0.60;;;;;;;;;;5132965;28;20600;-41
2023/05/14 12:38:48;;;;;;;1.10;0.68;;;;;;;;;;5130644;28;20671;-41
2023/05/14 12:41:16;;;;;;;0.73;0.60;;;;;;;;;;5133147;28;20204;-41
2023/05/14 12:43:46;;;;;;;0.70;0.65;;;;;;;;;;5114959;28;20206;-40
2023/05/14 12:46:13;;;;;;;1.55;0.80;;;;;;;;;;5133033;28;20200;-42
2023/05/14 12:48:41;;;;;;;0.65;0.52;;;;;;;;;;5133826;28;20197;-40
2023/05/14 12:51:08;;;;;;;1.10;0.95;;;;;;;;;;5134202;28;20201;-43
2023/05/14 12:53:35;;;;;;;1.25;1.13;;;;;;;;;;5132783;28;20214;-43
2023/05/14 12:56:02;;;;;;;1.85;0.80;;;;;;;;;;5132740;28;20186;-42
2023/05/14 12:58:29;;;;;;;1.17;0.70;;;;;;;;;;5132609;28;20189;-42
2023/05/14 13:00:56;;;;;;;3.63;0.70;;;;;;;;;;5133610;28;20201;-42
2023/05/14 13:03:24;;;;;;;1.17;0.70;;;;;;;;;;5133845;28;20201;-42
2023/05/14 13:05:52;;;;;;;1.17;0.80;;;;;;;;;;5133726;28;20711;-44
2023/05/14 13:08:25;;;;;;;1.05;0.70;;;;;;;;;;5114824;27;20201;-44
2023/05/14 13:10:55;;;;;;;0.80;0.70;;;;;;;;;;5134927;27;20641;-43
2023/05/14 13:13:23;;;;;;;1.85;0.93;;;;;;;;;;5145666;27;20212;-42
2023/05/14 13:15:51;;;;;;;1.50;1.02;;;;;;;;;;5144775;27;20193;-43
2023/05/14 13:18:19;;;;;;;2.58;0.70;;;;;;;;;;5137616;27;20529;-43
2023/05/14 13:20:46;;;;;;;0.75;0.68;;;;;;;;;;5137686;27;20209;-42
2023/05/14 13:23:13;;;;;;;1.00;0.70;;;;;;;;;;5136299;27;20205;-42
2023/05/14 13:25:40;;;;;;;1.13;0.70;;;;;;;;;;5118998;27;20197;-44
2023/05/14 13:28:08;;;;;;;0.80;0.65;;;;;;;;;;5136196;27;20194;-45
2023/05/14 13:30:35;;;;;;;1.00;0.90;;;;;;;;;;5136239;27;20194;-45
2023/05/14 13:33:02;;;;;;;2.38;1.00;;;;;;;;;;5136632;27;20699;-44
2023/05/14 13:35:29;;;;;;;1.10;0.70;;;;;;;;;;5130685;27;20197;-43
2023/05/14 13:37:56;;;;;;;2.25;0.90;;;;;;;;;;5122025;27;20197;-47
2023/05/14 13:40:23;;;;;;;1.23;0.77;;;;;;;;;;5137293;27;20197;-43
2023/05/14 13:42:51;;;;;;;1.50;1.00;;;;;;;;;;5113874;27;20208;-43
2023/05/14 13:45:17;;;;;;;0.68;0.60;;;;;;;;;;5131473;27;20209;-43
2023/05/14 13:47:45;;;;;;;2.50;1.10;;;;;;;;;;5136725;27;20201;-43
2023/05/14 13:50:12;;;;;;;0.82;0.80;;;;;;;;;;5136647;27;20185;-46
2023/05/14 13:52:40;;;;;;;0.77;0.63;;;;;;;;;;5136953;27;20229;-42
2023/05/14 13:55:08;;;;;;;1.33;0.93;;;;;;;;;;5136433;27;20202;-47
2023/05/14 13:57:36;;;;;;;0.75;0.70;;;;;;;;;;5136487;27;20560;-45
2023/05/14 14:00:05;;;;;;;1.00;0.80;;;;;;;;;;5136550;27;20202;-42
2023/05/14 14:02:33;;;;;;;0.82;0.70;;;;;;;;;;5118644;27;20314;-43
2023/05/14 14:05:00;;;;;;;0.80;0.65;;;;;;;;;;5136393;27;20200;-44
2023/05/14 14:07:28;;;;;;;1.15;0.77;;;;;;;;;;5094622;28;20203;-44
2023/05/14 14:09:56;;;;;;;0.93;0.73;;;;;;;;;;5095757;28;20614;-46
2023/05/14 14:12:25;;;;;;;1.50;0.80;;;;;;;;;;5095849;28;20228;-45
2023/05/14 14:14:52;;;;;;;1.58;0.88;;;;;;;;;;5095427;28;20198;-45
2023/05/14 14:17:20;;;;;;;1.70;0.95;;;;;;;;;;5095388;28;20756;-47
2023/05/14 14:19:48;;;;;;;2.92;0.80;;;;;;;;;;5095021;28;20214;-43
2023/05/14 14:22:16;;;;;;;2.47;0.90;;;;;;;;;;5095041;28;20210;-39
2023/05/14 14:24:43;;;;;;;1.52;1.13;;;;;;;;;;5094280;28;20219;-38
2023/05/14 14:27:11;;;;;;;1.05;0.80;;;;;;;;;;5095091;28;20206;-40
2023/05/14 14:29:37;;;;;;;0.90;0.70;;;;;;;;;;5095206;28;20203;-39
2023/05/14 14:32:05;;;;;;;1.33;0.90;;;;;;;;;;5095530;28;20339;-39
2023/05/14 14:34:32;;;;;;;1.45;0.90;;;;;;;;;;5094552;28;20257;-38
2023/05/14 14:36:59;;;;;;;1.13;1.00;;;;;;;;;;5093969;28;20186;-45
2023/05/14 14:39:27;;;;;;;2.33;1.00;;;;;;;;;;5093681;28;20186;-44
2023/05/14 14:41:54;;;;;;;2.60;1.50;;;;;;;;;;5092466;28;20220;-43
2023/05/14 14:44:21;;;;;;;1.63;1.05;;;;;;;;;;5092984;28;20230;-46
2023/05/14 14:46:49;;;;;;;1.30;1.00;;;;;;;;;;5087132;28;20223;-44
2023/05/14 14:49:16;;;;;;;1.52;0.95;;;;;;;;;;5089489;28;20629;-44